createdAt,value
2018-07-13T00:00:08.360Z,101355.37
2018-07-13T00:02:36.698Z,101360.39
2018-07-13T00:05:05.359Z,101363.77
2018-07-13T00:07:33.676Z,101369.61
2018-07-13T00:10:01.997Z,101362.48
2018-07-13T00:12:30.329Z,101362.19
2018-07-13T00:15:05.851Z,101373.20
2018-07-13T00:17:34.201Z,101367.91
2018-07-13T00:20:02.593Z,101373.94
2018-07-13T00:22:30.905Z,101376.25
2018-07-13T00:24:59.183Z,101377.78
2018-07-13T00:27:27.549Z,101380.48
2018-07-13T00:29:55.880Z,101377.35
2018-07-13T00:32:24.205Z,101380.69
2018-07-13T00:34:52.654Z,101382.69
2018-07-13T00:37:21.039Z,101381.04
2018-07-13T00:39:49.383Z,101372.58
2018-07-13T00:42:17.717Z,101377.59
2018-07-13T00:44:46.228Z,101376.30
2018-07-13T00:47:14.605Z,101382.44
2018-07-13T00:49:42.960Z,101388.59
2018-07-13T00:52:11.341Z,101388.59
2018-07-13T00:54:39.709Z,101386.44
2018-07-13T00:57:08.134Z,101384.16
2018-07-13T00:59:36.447Z,101389.48
2018-07-13T01:02:04.766Z,101387.56
2018-07-13T01:04:33.163Z,101387.41
2018-07-13T01:07:01.525Z,101394.72
2018-07-13T01:09:29.880Z,101393.93
2018-07-13T01:11:58.178Z,101395.58
2018-07-13T01:14:26.557Z,101394.09
2018-07-13T01:16:55.018Z,101396.75
2018-07-13T01:19:23.370Z,101389.46
2018-07-13T01:21:51.689Z,101397.09
2018-07-13T01:24:20.049Z,101397.62
2018-07-13T01:26:48.448Z,101395.16
2018-07-13T01:29:16.888Z,101400.98
2018-07-13T01:31:45.231Z,101403.64
2018-07-13T01:34:13.588Z,101399.02
2018-07-13T01:36:41.913Z,101406.34
2018-07-13T01:39:12.289Z,101408.33
2018-07-13T01:41:41.002Z,101405.16
2018-07-13T01:44:09.391Z,101403.19
2018-07-13T01:46:37.714Z,101398.37
2018-07-13T01:49:06.360Z,101406.86
2018-07-13T01:51:34.720Z,101407.20
2018-07-13T01:54:03.097Z,101410.05
2018-07-13T01:56:31.452Z,101415.05
2018-07-13T01:58:59.766Z,101409.38
2018-07-13T02:01:28.269Z,101416.53
2018-07-13T02:03:56.843Z,101413.70
2018-07-13T02:06:25.166Z,101407.40
2018-07-13T02:08:53.666Z,101408.73
2018-07-13T02:11:22.013Z,101405.94
2018-07-13T02:13:51.197Z,101408.62
2018-07-13T02:16:19.550Z,101411.75
2018-07-13T02:18:48.231Z,101412.59
2018-07-13T02:21:16.565Z,101414.27
2018-07-13T02:23:44.905Z,101418.45
2018-07-13T02:26:13.329Z,101421.28
2018-07-13T02:28:41.689Z,101422.78
2018-07-13T02:31:10.044Z,101416.00
2018-07-13T02:33:38.395Z,101417.48
2018-07-13T02:36:06.778Z,101422.31
2018-07-13T02:38:35.097Z,101420.81
2018-07-13T02:41:03.451Z,101423.48
2018-07-13T02:43:31.763Z,101419.01
2018-07-13T02:46:00.172Z,101424.84
2018-07-13T02:48:28.505Z,101425.50
2018-07-13T02:50:56.840Z,101428.34
2018-07-13T02:53:25.172Z,101427.98
2018-07-13T02:55:53.500Z,101429.17
2018-07-13T02:58:21.833Z,101425.66
2018-07-13T03:00:50.208Z,101428.17
2018-07-13T03:03:18.633Z,101423.20
2018-07-13T03:05:46.974Z,101417.89
2018-07-13T03:08:15.291Z,101428.16
2018-07-13T03:10:43.768Z,101434.31
2018-07-13T03:13:12.161Z,101435.97
2018-07-13T03:15:40.486Z,101430.52
2018-07-13T03:18:08.859Z,101435.47
2018-07-13T03:20:37.204Z,101433.31
2018-07-13T03:23:05.554Z,101434.32
2018-07-13T03:25:33.913Z,101438.62
2018-07-13T03:28:02.258Z,101441.14
2018-07-13T03:30:30.612Z,101442.11
2018-07-13T03:32:58.917Z,101446.27
2018-07-13T03:35:27.284Z,101441.47
2018-07-13T03:37:55.682Z,101445.77
2018-07-13T03:40:24.001Z,101451.08
2018-07-13T03:42:52.358Z,101452.73
2018-07-13T03:45:20.685Z,101451.58
2018-07-13T03:47:49.034Z,101452.58
2018-07-13T03:50:17.354Z,101449.27
2018-07-13T03:52:45.730Z,101452.75
2018-07-13T03:55:14.083Z,101449.09
2018-07-13T03:57:42.454Z,101448.08
2018-07-13T04:00:10.819Z,101450.20
2018-07-13T04:02:39.158Z,101449.35
2018-07-13T04:05:07.493Z,101452.50
2018-07-13T04:07:35.796Z,101452.09
2018-07-13T04:10:04.212Z,101457.88
2018-07-13T04:12:32.573Z,101454.62
2018-07-13T04:15:00.965Z,101456.69
2018-07-13T04:17:29.264Z,101453.35
2018-07-13T04:19:57.628Z,101463.28
2018-07-13T04:22:26.235Z,101458.81
2018-07-13T04:24:54.898Z,101457.65
2018-07-13T04:27:26.883Z,101453.00
2018-07-13T04:29:55.844Z,101451.28
2018-07-13T04:32:24.467Z,101448.19
2018-07-13T04:34:53.259Z,101446.00
2018-07-13T04:37:21.599Z,101456.20
2018-07-13T04:39:49.929Z,101460.27
2018-07-13T04:42:18.248Z,101456.84
2018-07-13T04:44:46.648Z,101458.69
2018-07-13T04:47:14.960Z,101458.77
2018-07-13T04:49:43.292Z,101465.77
2018-07-13T04:52:11.646Z,101464.34
2018-07-13T04:54:39.994Z,101459.53
2018-07-13T04:57:08.331Z,101460.33
2018-07-13T04:59:36.668Z,101463.05
2018-07-13T05:02:05.380Z,101470.34
2018-07-13T05:04:33.970Z,101464.32
2018-07-13T05:07:02.370Z,101465.09
2018-07-13T05:09:30.939Z,101462.79
2018-07-13T05:11:59.382Z,101463.84
2018-07-13T05:14:27.752Z,101463.82
2018-07-13T05:16:56.147Z,101464.75
2018-07-13T05:19:24.496Z,101460.37
2018-07-13T05:21:53.046Z,101465.78
2018-07-13T05:24:21.440Z,101464.43
2018-07-13T05:26:49.940Z,101466.97
2018-07-13T05:29:18.388Z,101466.69
2018-07-13T05:31:46.780Z,101464.97
2018-07-13T05:34:15.169Z,101464.87
2018-07-13T05:36:43.607Z,101473.77
2018-07-13T05:39:13.136Z,101475.91
2018-07-13T05:41:41.819Z,101480.28
2018-07-13T05:44:10.248Z,101484.73
2018-07-13T05:46:38.936Z,101485.59
2018-07-13T05:49:07.351Z,101482.01
2018-07-13T05:51:35.748Z,101477.38
2018-07-13T05:54:04.376Z,101484.52
2018-07-13T05:56:32.890Z,101478.33
2018-07-13T05:59:01.252Z,101479.03
2018-07-13T06:01:29.640Z,101486.80
2018-07-13T06:03:58.092Z,101482.90
2018-07-13T06:06:26.404Z,101483.81
2018-07-13T06:08:54.811Z,101489.72
2018-07-13T06:11:23.170Z,101490.50
2018-07-13T06:13:51.488Z,101479.65
2018-07-13T06:16:19.793Z,101485.25
2018-07-13T06:18:48.081Z,101490.59
2018-07-13T06:21:16.460Z,101495.61
2018-07-13T06:23:44.788Z,101501.11
2018-07-13T06:26:13.141Z,101498.42
2018-07-13T06:28:41.486Z,101503.05
2018-07-13T06:31:10.052Z,101500.94
2018-07-13T06:33:38.485Z,101507.27
2018-07-13T06:36:06.897Z,101502.68
2018-07-13T06:38:35.261Z,101505.39
2018-07-13T06:41:03.812Z,101501.27
2018-07-13T06:43:32.176Z,101512.25
2018-07-13T06:46:00.522Z,101511.61
2018-07-13T06:48:28.900Z,101508.28
2018-07-13T06:50:57.284Z,101517.47
2018-07-13T06:53:25.688Z,101514.41
2018-07-13T06:55:54.070Z,101517.69
2018-07-13T06:58:33.742Z,101519.02
2018-07-13T07:01:08.054Z,101523.70
2018-07-13T07:03:42.236Z,101527.06
2018-07-13T07:06:13.255Z,101526.38
2018-07-13T07:08:45.179Z,101521.64
2018-07-13T07:11:13.872Z,101525.27
2018-07-13T07:13:44.201Z,101529.09
2018-07-13T07:16:12.578Z,101535.14
2018-07-13T07:18:41.004Z,101539.80
2018-07-13T07:21:09.700Z,101540.06
2018-07-13T07:23:38.330Z,101533.29
2018-07-13T07:26:07.012Z,101534.34
2018-07-13T07:28:36.225Z,101537.53
2018-07-13T07:31:04.615Z,101534.84
2018-07-13T07:33:32.968Z,101536.69
2018-07-13T07:36:01.318Z,101535.00
2018-07-13T07:38:29.728Z,101536.59
2018-07-13T07:40:58.049Z,101529.66
2018-07-13T07:43:26.614Z,101533.59
2018-07-13T07:45:54.977Z,101526.91
2018-07-13T07:48:23.327Z,101525.58
2018-07-13T07:50:51.705Z,101532.64
2018-07-13T07:53:20.053Z,101526.22
2018-07-13T07:55:48.373Z,101533.88
2018-07-13T07:58:16.743Z,101529.09
2018-07-13T08:00:45.097Z,101526.29
2018-07-13T08:03:13.456Z,101528.83
2018-07-13T08:05:41.781Z,101539.23
2018-07-13T08:08:10.204Z,101539.50
2018-07-13T08:10:38.594Z,101532.89
2018-07-13T08:13:07.114Z,101536.79
2018-07-13T08:15:35.429Z,101534.14
2018-07-13T08:18:03.866Z,101534.73
2018-07-13T08:20:35.524Z,101528.09
2018-07-13T08:23:07.698Z,101528.45
2018-07-13T08:25:36.948Z,101530.36
2018-07-13T08:28:05.674Z,101529.48
2018-07-13T08:30:50.333Z,101527.36
2018-07-13T08:33:18.679Z,101526.02
2018-07-13T08:35:47.035Z,101521.22
2018-07-13T08:38:15.399Z,101519.67
2018-07-13T08:40:43.735Z,101526.23
2018-07-13T08:43:12.112Z,101528.40
2018-07-13T08:45:40.493Z,101528.22
2018-07-13T08:48:08.930Z,101526.62
2018-07-13T08:50:37.302Z,101523.77
2018-07-13T08:53:05.837Z,101518.11
2018-07-13T08:55:34.199Z,101522.47
2018-07-13T08:58:02.688Z,101521.47
2018-07-13T09:00:31.064Z,101521.50
2018-07-13T09:02:59.493Z,101516.62
2018-07-13T09:05:27.817Z,101520.86
2018-07-13T09:07:56.378Z,101516.95
2018-07-13T09:10:24.898Z,101516.22
2018-07-13T09:12:53.252Z,101525.72
2018-07-13T09:15:21.606Z,101523.69
2018-07-13T09:17:49.933Z,101521.83
2018-07-13T09:20:18.335Z,101521.77
2018-07-13T09:22:46.706Z,101526.03
2018-07-13T09:25:15.063Z,101521.65
2018-07-13T09:27:43.424Z,101522.22
2018-07-13T09:30:12.540Z,101518.63
2018-07-13T09:32:41.141Z,101512.43
2018-07-13T09:35:09.756Z,101513.73
2018-07-13T09:37:38.177Z,101507.76
2018-07-13T09:40:06.759Z,101519.73
2018-07-13T09:42:35.594Z,101509.44
2018-07-13T09:45:03.968Z,101516.56
2018-07-13T09:47:32.391Z,101520.02
2018-07-13T09:50:00.701Z,101516.08
2018-07-13T09:52:29.078Z,101512.05
2018-07-13T09:54:57.655Z,101512.98
2018-07-13T09:57:26.333Z,101514.66
2018-07-13T09:59:54.727Z,101519.28
2018-07-13T10:02:23.078Z,101517.75
2018-07-13T10:04:51.445Z,101516.30
2018-07-13T10:07:19.891Z,101512.58
2018-07-13T10:09:48.296Z,101510.97
2018-07-13T10:12:16.693Z,101513.95
2018-07-13T10:14:45.051Z,101511.56
2018-07-13T10:17:13.385Z,101511.23
2018-07-13T10:19:41.853Z,101516.61
2018-07-13T10:22:12.357Z,101512.61
2018-07-13T10:24:42.150Z,101510.22
2018-07-13T10:27:10.553Z,101511.04
2018-07-13T10:29:42.356Z,101503.62
2018-07-13T10:32:10.709Z,101502.48
2018-07-13T10:34:39.078Z,101509.49
2018-07-13T10:37:07.483Z,101515.67
2018-07-13T10:39:35.953Z,101511.75
2018-07-13T10:42:04.312Z,101506.56
2018-07-13T10:44:32.732Z,101503.47
2018-07-13T10:47:01.115Z,101509.25
2018-07-13T10:49:29.520Z,101511.83
2018-07-13T10:51:57.924Z,101512.66
2018-07-13T10:54:26.306Z,101505.84
2018-07-13T10:56:54.714Z,101503.33
2018-07-13T10:59:23.004Z,101500.75
2018-07-13T11:01:51.357Z,101498.34
2018-07-13T11:04:19.727Z,101500.06
2018-07-13T11:06:48.061Z,101497.28
2018-07-13T11:09:16.385Z,101491.16
2018-07-13T11:11:44.870Z,101488.48
2018-07-13T11:14:13.187Z,101493.89
2018-07-13T11:16:41.550Z,101486.66
2018-07-13T11:19:09.887Z,101482.88
2018-07-13T11:21:38.221Z,101481.31
2018-07-13T11:24:06.613Z,101479.54
2018-07-13T11:26:34.965Z,101485.93
2018-07-13T11:29:03.292Z,101479.28
2018-07-13T11:31:31.643Z,101480.81
2018-07-13T11:34:00.050Z,101476.06
2018-07-13T11:36:28.341Z,101472.36
2018-07-13T11:38:56.713Z,101466.95
2018-07-13T11:41:25.069Z,101468.25
2018-07-13T11:43:53.386Z,101468.89
2018-07-13T11:46:21.729Z,101465.68
2018-07-13T11:48:50.044Z,101470.42
2018-07-13T11:51:18.414Z,101472.22
2018-07-13T11:53:46.714Z,101466.69
2018-07-13T11:56:15.303Z,101461.92
2018-07-13T11:58:43.621Z,101464.81
2018-07-13T12:01:11.979Z,101469.56
2018-07-13T12:03:40.302Z,101472.54
2018-07-13T12:06:08.645Z,101463.98
2018-07-13T12:08:37.046Z,101460.44
2018-07-13T12:11:05.415Z,101453.42
2018-07-13T12:13:33.751Z,101453.95
2018-07-13T12:16:02.127Z,101450.64
2018-07-13T12:18:30.463Z,101446.93
2018-07-13T12:20:58.929Z,101440.82
2018-07-13T12:23:27.306Z,101443.75
2018-07-13T12:25:55.641Z,101437.45
2018-07-13T12:28:24.350Z,101442.48
2018-07-13T12:30:52.722Z,101438.25
2018-07-13T12:33:21.024Z,101433.54
2018-07-13T12:35:49.377Z,101445.97
2018-07-13T12:38:17.695Z,101440.08
2018-07-13T12:40:46.061Z,101439.55
2018-07-13T12:43:14.411Z,101436.24
2018-07-13T12:45:42.774Z,101427.97
2018-07-13T12:48:11.185Z,101424.01
2018-07-13T12:50:39.540Z,101421.61
2018-07-13T12:53:07.982Z,101433.13
2018-07-13T12:55:36.321Z,101417.34
2018-07-13T12:58:04.963Z,101417.42
2018-07-13T13:00:33.323Z,101424.04
2018-07-13T13:03:01.705Z,101419.60
2018-07-13T13:05:30.194Z,101419.89
2018-07-13T13:07:58.449Z,101419.81
2018-07-13T13:10:26.828Z,101415.48
2018-07-13T13:12:55.120Z,101416.78
2018-07-13T13:15:23.529Z,101417.80
2018-07-13T13:17:51.894Z,101409.96
2018-07-13T13:20:20.346Z,101420.21
2018-07-13T13:22:48.818Z,101414.01
2018-07-13T13:25:17.162Z,101409.11
2018-07-13T13:27:45.497Z,101410.08
2018-07-13T13:30:13.903Z,101411.19
2018-07-13T13:32:42.226Z,101406.12
2018-07-13T13:35:10.560Z,101406.97
2018-07-13T13:37:38.928Z,101407.33
2018-07-13T13:40:07.347Z,101406.87
2018-07-13T13:42:35.687Z,101400.16
2018-07-13T13:45:04.013Z,101409.63
2018-07-13T13:47:32.362Z,101407.55
2018-07-13T13:50:00.693Z,101399.76
2018-07-13T13:52:29.155Z,101398.45
2018-07-13T13:54:57.481Z,101400.02
2018-07-13T13:57:25.845Z,101400.14
2018-07-13T13:59:54.321Z,101392.84
2018-07-13T14:02:22.592Z,101399.77
2018-07-13T14:04:50.913Z,101393.14
2018-07-13T14:07:19.361Z,101401.12
2018-07-13T14:09:47.825Z,101382.33
2018-07-13T14:12:16.142Z,101384.03
2018-07-13T14:14:44.554Z,101387.72
2018-07-13T14:17:12.908Z,101376.61
2018-07-13T14:19:41.255Z,101382.06
2018-07-13T14:22:09.582Z,101378.12
2018-07-13T14:24:37.937Z,101386.05
2018-07-13T14:27:06.306Z,101379.13
2018-07-13T14:29:34.640Z,101378.06
2018-07-13T14:32:02.972Z,101370.45
2018-07-13T14:34:31.335Z,101375.02
2018-07-13T14:36:59.682Z,101375.63
2018-07-13T14:39:27.996Z,101369.92
2018-07-13T14:41:56.329Z,101372.03
2018-07-13T14:44:24.709Z,101366.97
2018-07-13T14:46:53.050Z,101375.08
2018-07-13T14:49:21.345Z,101370.98
2018-07-13T14:51:49.669Z,101372.22
2018-07-13T14:54:18.087Z,101365.97
2018-07-13T14:56:46.458Z,101369.88
2018-07-13T14:59:14.948Z,101366.70
2018-07-13T15:01:43.280Z,101360.92
2018-07-13T15:04:11.677Z,101364.12
2018-07-13T15:06:40.077Z,101357.84
2018-07-13T15:09:08.499Z,101357.23
2018-07-13T15:11:36.837Z,101353.66
2018-07-13T15:14:05.251Z,101353.08
2018-07-13T15:16:33.557Z,101357.73
2018-07-13T15:19:01.890Z,101352.84
2018-07-13T15:21:30.227Z,101351.98
2018-07-13T15:23:58.546Z,101352.94
2018-07-13T15:26:26.964Z,101356.27
2018-07-13T15:28:55.336Z,101353.57
2018-07-13T15:31:23.869Z,101345.24
2018-07-13T15:33:52.197Z,101339.86
2018-07-13T15:36:20.581Z,101337.54
2018-07-13T15:38:48.910Z,101339.19
2018-07-13T15:41:17.270Z,101334.72
2018-07-13T15:43:46.441Z,101332.86
2018-07-13T15:46:14.794Z,101333.33
2018-07-13T15:48:43.099Z,101342.53
2018-07-13T15:51:11.751Z,101335.91
2018-07-13T15:53:40.080Z,101330.40
2018-07-13T15:56:08.397Z,101335.14
2018-07-13T15:58:36.816Z,101327.64
2018-07-13T16:01:05.129Z,101325.92
2018-07-13T16:03:33.502Z,101319.83
2018-07-13T16:06:01.862Z,101320.54
2018-07-13T16:08:30.170Z,101326.16
2018-07-13T16:10:58.501Z,101323.09
2018-07-13T16:13:26.881Z,101326.80
2018-07-13T16:15:55.210Z,101320.87
2018-07-13T16:18:23.557Z,101316.50
2018-07-13T16:20:51.861Z,101323.59
2018-07-13T16:23:20.235Z,101320.23
2018-07-13T16:25:48.582Z,101320.69
2018-07-13T16:28:16.932Z,101322.16
2018-07-13T16:30:45.244Z,101324.77
2018-07-13T16:33:13.584Z,101324.79
2018-07-13T16:35:42.087Z,101320.34
2018-07-13T16:38:10.497Z,101319.45
2018-07-13T16:40:38.882Z,101312.05
2018-07-13T16:43:07.249Z,101315.70
2018-07-13T16:45:35.589Z,101310.05
2018-07-13T16:48:03.912Z,101312.52
2018-07-13T16:50:32.379Z,101310.36
2018-07-13T16:53:00.646Z,101313.05
2018-07-13T16:55:28.984Z,101314.80
2018-07-13T16:57:57.348Z,101303.98
2018-07-13T17:00:25.682Z,101304.13
2018-07-13T17:02:54.040Z,101309.75
2018-07-13T17:05:22.395Z,101309.38
2018-07-13T17:07:50.758Z,101300.41
2018-07-13T17:10:19.124Z,101301.82
2018-07-13T17:12:47.466Z,101307.95
2018-07-13T17:15:15.851Z,101298.13
2018-07-13T17:17:44.222Z,101297.66
2018-07-13T17:20:12.579Z,101301.84
2018-07-13T17:22:40.909Z,101296.20
2018-07-13T17:25:09.240Z,101298.30
2018-07-13T17:27:37.864Z,101302.23
2018-07-13T17:30:07.519Z,101299.94
2018-07-13T17:32:35.917Z,101301.47
2018-07-13T17:35:04.328Z,101298.25
2018-07-13T17:37:32.654Z,101298.31
2018-07-13T17:40:01.164Z,101302.21
2018-07-13T17:42:29.627Z,101300.58
2018-07-13T17:44:58.013Z,101304.02
2018-07-13T17:47:26.398Z,101298.69
2018-07-13T17:49:54.755Z,101297.48
2018-07-13T17:52:23.124Z,101299.78
2018-07-13T17:54:51.541Z,101292.53
2018-07-13T17:57:19.889Z,101299.27
2018-07-13T17:59:48.200Z,101299.55
2018-07-13T18:02:16.553Z,101295.06
2018-07-13T18:04:44.932Z,101289.67
2018-07-13T18:07:13.415Z,101291.79
2018-07-13T18:09:41.765Z,101293.59
2018-07-13T18:12:10.104Z,101286.71
2018-07-13T18:14:38.480Z,101296.06
2018-07-13T18:17:06.868Z,101286.06
2018-07-13T18:19:35.336Z,101286.59
2018-07-13T18:22:03.669Z,101289.95
2018-07-13T18:24:32.017Z,101289.38
2018-07-13T18:27:00.419Z,101288.03
2018-07-13T18:29:28.827Z,101287.14
2018-07-13T18:31:57.174Z,101283.63
2018-07-13T18:34:25.498Z,101291.47
2018-07-13T18:36:53.853Z,101285.27
2018-07-13T18:39:22.193Z,101291.10
2018-07-13T18:41:50.512Z,101289.89
2018-07-13T18:44:18.922Z,101283.53
2018-07-13T18:46:47.376Z,101289.37
2018-07-13T18:49:16.492Z,101296.55
2018-07-13T18:51:44.801Z,101299.56
2018-07-13T18:54:13.143Z,101298.30
2018-07-13T18:56:41.521Z,101297.27
2018-07-13T18:59:09.828Z,101299.27
2018-07-13T19:01:38.201Z,101298.61
2018-07-13T19:04:06.656Z,101302.20
2018-07-13T19:06:35.115Z,101296.16
2018-07-13T19:09:03.776Z,101304.58
2018-07-13T19:11:32.166Z,101304.13
2018-07-13T19:14:00.512Z,101299.59
2018-07-13T19:16:28.815Z,101299.66
2018-07-13T19:18:57.199Z,101310.48
2018-07-13T19:21:25.560Z,101307.04
2018-07-13T19:23:53.954Z,101305.23
2018-07-13T19:26:22.322Z,101308.59
2018-07-13T19:28:50.736Z,101308.94
2018-07-13T19:31:19.035Z,101314.36
2018-07-13T19:33:47.372Z,101307.11
2018-07-13T19:36:16.060Z,101318.06
2018-07-13T19:38:44.340Z,101313.59
2018-07-13T19:41:12.665Z,101312.88
2018-07-13T19:43:41.100Z,101322.13
2018-07-13T19:46:09.460Z,101326.70
2018-07-13T19:48:37.793Z,101328.99
2018-07-13T19:51:06.168Z,101330.15
2018-07-13T19:53:34.613Z,101325.20
2018-07-13T19:56:03.140Z,101324.19
2018-07-13T19:58:31.437Z,101328.58
2018-07-13T20:01:06.267Z,101329.44
2018-07-13T20:03:34.614Z,101334.94
2018-07-13T20:06:03.069Z,101336.09
2018-07-13T20:08:31.410Z,101335.69
2018-07-13T20:10:59.777Z,101337.88
2018-07-13T20:13:28.152Z,101339.25
2018-07-13T20:15:56.532Z,101342.06
2018-07-13T20:18:24.908Z,101336.81
2018-07-13T20:20:53.785Z,101349.02
2018-07-13T20:23:22.118Z,101342.73
2018-07-13T20:25:50.430Z,101342.63
2018-07-13T20:28:18.763Z,101345.10
2018-07-13T20:30:47.166Z,101345.42
2018-07-13T20:33:15.653Z,101350.91
2018-07-13T20:35:43.993Z,101352.97
2018-07-13T20:38:12.379Z,101355.89
2018-07-13T20:40:40.966Z,101359.41
2018-07-13T20:43:09.499Z,101355.17
2018-07-13T20:45:37.897Z,101361.88
2018-07-13T20:48:06.297Z,101360.64
2018-07-13T20:50:34.732Z,101362.81
2018-07-13T20:53:03.086Z,101366.02
2018-07-13T20:55:31.442Z,101363.14
2018-07-13T20:58:00.045Z,101362.92
2018-07-13T21:00:28.409Z,101363.66
2018-07-13T21:02:56.777Z,101360.02
2018-07-13T21:05:25.161Z,101365.78
2018-07-13T21:07:53.502Z,101374.94
2018-07-13T21:10:21.821Z,101368.64
2018-07-13T21:12:50.181Z,101371.76
2018-07-13T21:15:18.508Z,101386.90
2018-07-13T21:17:46.814Z,101390.80
2018-07-13T21:20:15.220Z,101395.64
2018-07-13T21:22:43.585Z,101394.60
2018-07-13T21:25:11.892Z,101398.95
2018-07-13T21:27:40.233Z,101395.54
2018-07-13T21:30:08.765Z,101395.02
2018-07-13T21:32:37.062Z,101400.59
2018-07-13T21:35:05.796Z,101397.28
2018-07-13T21:37:34.190Z,101397.60
2018-07-13T21:40:02.565Z,101393.66
2018-07-13T21:42:30.936Z,101397.77
2018-07-13T21:44:59.327Z,101401.67
2018-07-13T21:47:27.645Z,101403.11
2018-07-13T21:49:55.997Z,101401.87
2018-07-13T21:52:24.306Z,101400.63
2018-07-13T21:54:52.656Z,101403.19
2018-07-13T21:57:20.964Z,101405.66
2018-07-13T21:59:49.275Z,101394.70
2018-07-13T22:02:17.619Z,101397.78
2018-07-13T22:04:46.084Z,101395.72
2018-07-13T22:07:14.545Z,101396.11
2018-07-13T22:09:42.876Z,101405.23
2018-07-13T22:12:11.266Z,101400.50
2018-07-13T22:14:39.633Z,101404.39
2018-07-13T22:17:08.065Z,101402.47
2018-07-13T22:19:36.483Z,101405.23
2018-07-13T22:22:05.149Z,101401.19
2018-07-13T22:24:33.486Z,101410.52
2018-07-13T22:27:01.821Z,101404.81
2018-07-13T22:29:30.253Z,101411.25
2018-07-13T22:31:58.597Z,101413.01
2018-07-13T22:34:26.921Z,101413.06
2018-07-13T22:36:55.287Z,101411.29
2018-07-13T22:39:23.641Z,101420.55
2018-07-13T22:41:51.965Z,101425.64
2018-07-13T22:44:20.395Z,101420.69
2018-07-13T22:46:48.730Z,101422.53
2018-07-13T22:49:17.176Z,101430.94
2018-07-13T22:51:45.472Z,101426.70
2018-07-13T22:54:13.788Z,101426.75
2018-07-13T22:56:42.143Z,101427.98
2018-07-13T22:59:10.509Z,101426.83
2018-07-13T23:01:38.963Z,101428.88
2018-07-13T23:04:07.644Z,101433.76
2018-07-13T23:06:36.100Z,101433.02
2018-07-13T23:09:05.519Z,101442.88
2018-07-13T23:11:33.873Z,101445.55
2018-07-13T23:14:02.219Z,101447.09
2018-07-13T23:16:30.556Z,101438.58
2018-07-13T23:18:59.256Z,101443.81
2018-07-13T23:21:27.754Z,101440.87
2018-07-13T23:23:56.132Z,101445.47
2018-07-13T23:26:24.440Z,101437.52
2018-07-13T23:28:52.756Z,101440.58
2018-07-13T23:31:21.101Z,101438.45
2018-07-13T23:33:49.423Z,101436.36
2018-07-13T23:36:17.730Z,101438.90
2018-07-13T23:38:46.150Z,101432.08
2018-07-13T23:41:15.141Z,101433.83
2018-07-13T23:43:43.497Z,101433.55
2018-07-13T23:46:12.804Z,101434.13
2018-07-13T23:48:42.489Z,101430.56
2018-07-13T23:51:10.795Z,101425.46
2018-07-13T23:53:39.159Z,101426.03
2018-07-13T23:56:07.491Z,101427.09
2018-07-13T23:58:35.919Z,101426.33
